createdAt,value
2023-08-11T00:04:20.571Z,8.20
2023-08-11T00:14:29.394Z,7.03
2023-08-11T00:24:31.328Z,6.47
2023-08-11T00:34:35.243Z,8.57
2023-08-11T00:44:37.258Z,8.63
2023-08-11T00:54:47.750Z,8.65
2023-08-11T01:04:50.057Z,7.88
2023-08-11T01:15:27.019Z,8.43
2023-08-11T01:25:31.233Z,10.00
2023-08-11T01:35:58.605Z,9.75
2023-08-11T01:46:00.916Z,7.80
2023-08-11T01:56:04.296Z,7.05
2023-08-11T02:06:07.234Z,9.35
2023-08-11T02:16:17.251Z,6.03
2023-08-11T02:26:19.220Z,9.63
2023-08-11T02:36:22.226Z,8.32
2023-08-11T02:46:25.143Z,6.25
2023-08-11T02:56:27.112Z,8.05
2023-08-11T03:06:29.277Z,6.13
2023-08-11T03:16:34.029Z,6.25
2023-08-11T03:26:35.951Z,7.75
2023-08-11T03:36:37.902Z,7.10
2023-08-11T03:46:42.005Z,7.28
2023-08-11T03:56:45.087Z,5.82
2023-08-11T04:06:53.342Z,8.38
2023-08-11T04:16:55.672Z,5.70
2023-08-11T04:26:57.609Z,9.02
2023-08-11T04:37:06.705Z,11.57
2023-08-11T04:47:24.856Z,9.95
2023-08-11T04:57:26.852Z,6.85
2023-08-11T05:07:28.859Z,5.75
2023-08-11T05:17:32.442Z,7.75
2023-08-11T05:27:35.648Z,7.35
2023-08-11T05:37:42.617Z,6.82
2023-08-11T05:47:44.649Z,5.82
2023-08-11T05:57:46.702Z,5.85
2023-08-11T06:08:00.111Z,5.47
2023-08-11T06:18:08.287Z,5.60
2023-08-11T06:28:18.413Z,4.95
2023-08-11T06:38:21.542Z,5.93
2023-08-11T06:48:31.792Z,3.15
2023-08-11T06:58:34.742Z,3.15
2023-08-11T07:08:44.612Z,4.80
2023-08-11T07:18:46.500Z,2.85
2023-08-11T07:28:48.547Z,2.25
2023-08-11T07:39:09.209Z,2.40
2023-08-11T07:49:21.561Z,5.80
2023-08-11T07:59:48.253Z,4.32
2023-08-11T08:09:50.243Z,2.58
2023-08-11T08:19:58.647Z,2.08
2023-08-11T08:30:00.600Z,3.55
2023-08-11T08:40:03.134Z,2.22
2023-08-11T08:50:05.910Z,2.53
2023-08-11T09:00:16.131Z,3.22
2023-08-11T09:10:19.783Z,4.47
2023-08-11T09:20:30.686Z,1.52
2023-08-11T09:30:33.213Z,3.33
2023-08-11T09:40:36.644Z,3.10
2023-08-11T09:50:42.261Z,2.67
2023-08-11T10:00:46.627Z,3.08
2023-08-11T10:10:48.801Z,2.13
2023-08-11T10:20:52.724Z,1.67
2023-08-11T10:31:00.291Z,1.55
2023-08-11T10:41:05.138Z,2.45
2023-08-11T10:51:24.630Z,3.50
2023-08-11T11:01:26.887Z,3.30
2023-08-11T11:11:29.084Z,2.55
2023-08-11T11:21:32.309Z,1.75
2023-08-11T11:31:36.999Z,1.40
2023-08-11T11:41:39.838Z,2.53
2023-08-11T11:51:43.587Z,3.88
2023-08-11T12:01:46.959Z,3.33
2023-08-11T12:11:50.179Z,1.83
2023-08-11T12:21:52.202Z,2.55
2023-08-11T12:31:54.335Z,3.15
2023-08-11T12:41:56.697Z,4.30
2023-08-11T12:51:58.816Z,3.40
2023-08-11T13:02:08.133Z,3.25
2023-08-11T13:12:19.524Z,4.82
2023-08-11T13:22:21.563Z,4.05
2023-08-11T13:32:31.749Z,2.58
2023-08-11T13:42:44.225Z,2.00
2023-08-11T13:52:51.280Z,2.63
2023-08-11T14:03:10.598Z,3.72
2023-08-11T14:13:15.968Z,3.40
2023-08-11T14:23:19.041Z,2.53
2023-08-11T14:33:21.246Z,4.18
2023-08-11T14:43:23.346Z,3.40
2023-08-11T14:53:31.530Z,3.65
2023-08-11T15:03:41.678Z,3.58
2023-08-11T15:13:53.030Z,2.30
2023-08-11T15:23:57.106Z,2.28
2023-08-11T15:34:15.462Z,6.25
2023-08-11T15:44:18.646Z,5.50
2023-08-11T15:54:30.131Z,1.90
2023-08-11T16:04:38.381Z,2.45
2023-08-11T16:14:49.596Z,4.18
2023-08-11T16:24:51.752Z,2.70
2023-08-11T16:34:57.903Z,2.70
2023-08-11T16:44:59.958Z,3.25
2023-08-11T16:55:07.033Z,3.83
2023-08-11T17:05:10.513Z,2.45
2023-08-11T17:15:12.910Z,1.45
2023-08-11T17:25:19.100Z,2.30
2023-08-11T17:35:29.087Z,1.65
2023-08-11T17:45:40.024Z,1.80
2023-08-11T17:55:45.073Z,2.88
2023-08-11T18:05:54.248Z,3.55
2023-08-11T18:16:03.582Z,3.63
2023-08-11T18:26:17.869Z,3.42
2023-08-11T18:36:46.055Z,4.22
2023-08-11T18:46:54.229Z,9.20
2023-08-11T19:07:03.341Z,74.00
2023-08-11T19:17:14.004Z,44.55
2023-08-11T19:27:27.726Z,20.08
2023-08-11T19:37:31.207Z,17.88
2023-08-11T19:47:41.797Z,14.50
2023-08-11T19:57:46.138Z,15.50
2023-08-11T20:07:49.282Z,20.35
2023-08-11T20:17:51.736Z,12.18
2023-08-11T20:27:54.260Z,13.25
2023-08-11T20:38:03.418Z,7.95
2023-08-11T20:48:15.995Z,8.57
2023-08-11T20:58:24.565Z,10.60
2023-08-11T21:08:29.082Z,9.60
2023-08-11T21:18:32.124Z,16.70
2023-08-11T21:28:54.250Z,14.70
2023-08-11T21:39:21.742Z,17.83
2023-08-11T21:49:34.499Z,15.57
2023-08-11T21:59:38.952Z,13.00
2023-08-11T22:09:47.169Z,15.48
2023-08-11T22:19:59.664Z,15.77
2023-08-11T22:30:09.694Z,13.88
2023-08-11T22:40:13.842Z,12.15
2023-08-11T22:50:17.319Z,12.05
2023-08-11T23:00:20.147Z,12.88
2023-08-11T23:10:23.453Z,14.10
2023-08-11T23:20:26.411Z,11.05
2023-08-11T23:30:28.966Z,10.07
2023-08-11T23:40:43.984Z,11.90
2023-08-11T23:50:59.912Z,12.32
